createdAt,value
2018-07-15T00:00:11.966Z,101565.34
2018-07-15T00:01:17.391Z,101563.62
2018-07-15T00:02:22.853Z,101560.25
2018-07-15T00:03:28.325Z,101562.05
2018-07-15T00:04:33.934Z,101556.97
2018-07-15T00:05:39.538Z,101557.94
2018-07-15T00:06:44.965Z,101554.44
2018-07-15T00:07:50.462Z,101560.56
2018-07-15T00:08:55.977Z,101553.31
2018-07-15T00:10:01.538Z,101562.28
2018-07-15T00:11:07.002Z,101559.56
2018-07-15T00:12:12.441Z,101554.44
2018-07-15T00:13:17.845Z,101555.48
2018-07-15T00:14:23.257Z,101548.45
2018-07-15T00:15:28.785Z,101550.95
2018-07-15T00:16:34.272Z,101552.25
2018-07-15T00:17:39.713Z,101552.52
2018-07-15T00:18:45.159Z,101555.03
2018-07-15T00:19:50.602Z,101555.24
2018-07-15T00:20:56.426Z,101549.62
2018-07-15T00:22:01.994Z,101553.62
2018-07-15T00:23:08.265Z,101552.80
2018-07-15T00:24:13.698Z,101545.45
2018-07-15T00:25:19.124Z,101548.58
2018-07-15T00:26:24.589Z,101549.28
2018-07-15T00:27:30.049Z,101553.41
2018-07-15T00:28:35.481Z,101551.03
2018-07-15T00:29:40.950Z,101551.91
2018-07-15T00:30:46.372Z,101549.92
2018-07-15T00:31:51.830Z,101548.80
2018-07-15T00:32:57.289Z,101546.63
2018-07-15T00:34:02.776Z,101554.70
2018-07-15T00:35:08.327Z,101550.47
2018-07-15T00:36:13.845Z,101553.01
2018-07-15T00:37:19.318Z,101549.96
2018-07-15T00:38:24.911Z,101549.92
2018-07-15T00:39:30.324Z,101550.38
2018-07-15T00:40:35.781Z,101549.38
2018-07-15T00:41:41.290Z,101549.78
2018-07-15T00:42:46.785Z,101552.00
2018-07-15T00:43:52.646Z,101556.67
2018-07-15T00:44:58.109Z,101554.25
2018-07-15T00:46:03.601Z,101550.97
2018-07-15T00:47:09.205Z,101554.43
2018-07-15T00:48:14.678Z,101551.02
2018-07-15T00:49:20.126Z,101550.27
2018-07-15T00:50:25.621Z,101550.77
2018-07-15T00:51:31.105Z,101547.94
2018-07-15T00:52:36.573Z,101548.98
2018-07-15T00:53:41.804Z,101552.06
2018-07-15T00:54:47.112Z,101540.86
2018-07-15T00:55:52.544Z,101544.14
2018-07-15T00:56:57.997Z,101541.19
2018-07-15T00:58:03.446Z,101544.31
2018-07-15T00:59:08.954Z,101546.02
2018-07-15T01:00:18.818Z,101549.06
2018-07-15T01:01:24.238Z,101546.27
2018-07-15T01:02:29.665Z,101543.64
2018-07-15T01:03:35.504Z,101543.59
2018-07-15T01:04:40.945Z,101548.80
2018-07-15T01:05:46.816Z,101548.69
2018-07-15T01:06:52.294Z,101542.69
2018-07-15T01:07:57.781Z,101545.73
2018-07-15T01:09:03.276Z,101546.64
2018-07-15T01:10:08.901Z,101542.69
2018-07-15T01:11:14.385Z,101540.06
2018-07-15T01:12:19.911Z,101537.23
2018-07-15T01:13:25.541Z,101541.48
2018-07-15T01:14:30.976Z,101541.14
2018-07-15T01:15:36.501Z,101538.76
2018-07-15T01:16:42.158Z,101538.84
2018-07-15T01:17:47.655Z,101541.81
2018-07-15T01:18:53.121Z,101536.05
2018-07-15T01:19:58.552Z,101540.91
2018-07-15T01:21:03.977Z,101535.59
2018-07-15T01:22:09.471Z,101540.45
2018-07-15T01:23:14.725Z,101538.83
2018-07-15T01:24:20.106Z,101533.70
2018-07-15T01:25:25.552Z,101535.05
2018-07-15T01:26:31.398Z,101541.45
2018-07-15T01:27:36.829Z,101537.20
2018-07-15T01:28:42.246Z,101532.95
2018-07-15T01:29:47.662Z,101532.55
2018-07-15T01:30:53.135Z,101533.08
2018-07-15T01:31:58.569Z,101529.63
2018-07-15T01:33:04.022Z,101533.83
2018-07-15T01:34:09.437Z,101531.78
2018-07-15T01:35:14.974Z,101532.66
2018-07-15T01:36:20.443Z,101533.45
2018-07-15T01:37:25.903Z,101533.00
2018-07-15T01:38:31.857Z,101531.45
2018-07-15T01:39:37.297Z,101532.70
2018-07-15T01:40:42.719Z,101532.78
2018-07-15T01:41:48.160Z,101532.44
2018-07-15T01:42:53.580Z,101535.89
2018-07-15T01:43:59.105Z,101531.68
2018-07-15T01:45:04.594Z,101529.44
2018-07-15T01:46:10.077Z,101535.59
2018-07-15T01:47:15.690Z,101534.68
2018-07-15T01:48:21.263Z,101538.13
2018-07-15T01:49:26.762Z,101531.38
2018-07-15T01:50:32.240Z,101530.96
2018-07-15T01:51:37.657Z,101531.84
2018-07-15T01:52:43.035Z,101529.17
2018-07-15T01:53:48.573Z,101527.89
2018-07-15T01:54:54.053Z,101527.52
2018-07-15T01:55:59.501Z,101530.51
2018-07-15T01:57:05.166Z,101529.63
2018-07-15T01:58:10.627Z,101531.34
2018-07-15T01:59:16.102Z,101526.83
2018-07-15T02:00:21.593Z,101537.22
2018-07-15T02:01:27.068Z,101530.43
2018-07-15T02:02:32.479Z,101529.60
2018-07-15T02:03:37.908Z,101535.48
2018-07-15T02:04:43.369Z,101529.90
2018-07-15T02:05:48.858Z,101526.98
2018-07-15T02:06:54.289Z,101533.05
2018-07-15T02:07:59.714Z,101529.48
2018-07-15T02:09:05.821Z,101527.92
2018-07-15T02:10:11.450Z,101530.89
2018-07-15T02:11:16.841Z,101530.20
2018-07-15T02:12:22.300Z,101530.24
2018-07-15T02:13:27.749Z,101524.81
2018-07-15T02:14:33.202Z,101524.81
2018-07-15T02:15:38.637Z,101523.56
2018-07-15T02:16:44.070Z,101534.22
2018-07-15T02:17:49.519Z,101526.03
2018-07-15T02:18:54.975Z,101531.87
2018-07-15T02:20:00.420Z,101529.22
2018-07-15T02:21:05.879Z,101525.80
2018-07-15T02:22:11.337Z,101531.80
2018-07-15T02:23:16.830Z,101525.84
2018-07-15T02:24:22.249Z,101528.69
2018-07-15T02:25:27.695Z,101534.30
2018-07-15T02:26:33.217Z,101533.39
2018-07-15T02:27:38.682Z,101535.48
2018-07-15T02:28:44.079Z,101531.98
2018-07-15T02:29:49.501Z,101534.16
2018-07-15T02:30:54.973Z,101532.82
2018-07-15T02:32:00.680Z,101540.87
2018-07-15T02:33:06.468Z,101540.91
2018-07-15T02:34:12.021Z,101539.35
2018-07-15T02:35:17.438Z,101538.63
2018-07-15T02:36:22.916Z,101539.23
2018-07-15T02:37:28.401Z,101537.41
2018-07-15T02:38:33.853Z,101539.84
2018-07-15T02:39:39.291Z,101538.63
2018-07-15T02:40:45.133Z,101532.82
2018-07-15T02:41:50.650Z,101534.87
2018-07-15T02:42:56.076Z,101528.80
2018-07-15T02:44:01.518Z,101529.22
2018-07-15T02:45:07.414Z,101529.18
2018-07-15T02:46:12.883Z,101534.30
2018-07-15T02:47:18.293Z,101529.56
2018-07-15T02:48:23.758Z,101532.56
2018-07-15T02:49:29.185Z,101532.18
2018-07-15T02:50:34.625Z,101528.91
2018-07-15T02:51:40.062Z,101525.88
2018-07-15T02:52:45.536Z,101527.25
2018-07-15T02:53:51.111Z,101528.08
2018-07-15T02:54:56.570Z,101531.16
2018-07-15T02:56:01.961Z,101521.36
2018-07-15T02:57:07.421Z,101522.27
2018-07-15T02:58:12.869Z,101524.93
2018-07-15T02:59:18.299Z,101518.83
2018-07-15T03:00:23.853Z,101518.52
2018-07-15T03:01:29.305Z,101520.26
2018-07-15T03:02:34.729Z,101521.66
2018-07-15T03:03:40.144Z,101518.70
2018-07-15T03:04:45.639Z,101515.70
2018-07-15T03:05:51.186Z,101515.33
2018-07-15T03:06:56.592Z,101517.48
2018-07-15T03:08:02.034Z,101519.75
2018-07-15T03:09:10.377Z,101519.75
2018-07-15T03:10:16.061Z,101516.53
2018-07-15T03:11:21.515Z,101518.20
2018-07-15T03:12:26.946Z,101512.35
2018-07-15T03:13:32.397Z,101517.44
2018-07-15T03:14:37.924Z,101512.35
2018-07-15T03:15:43.383Z,101516.22
2018-07-15T03:16:48.850Z,101516.22
2018-07-15T03:17:54.694Z,101510.72
2018-07-15T03:19:00.157Z,101514.13
2018-07-15T03:20:05.661Z,101518.48
2018-07-15T03:21:11.108Z,101512.00
2018-07-15T03:22:16.665Z,101520.12
2018-07-15T03:23:22.720Z,101516.70
2018-07-15T03:24:28.157Z,101514.13
2018-07-15T03:25:33.574Z,101519.59
2018-07-15T03:26:38.984Z,101512.80
2018-07-15T03:27:44.519Z,101510.61
2018-07-15T03:28:50.400Z,101512.42
2018-07-15T03:29:55.842Z,101513.29
2018-07-15T03:31:01.315Z,101515.59
2018-07-15T03:32:06.461Z,101515.97
2018-07-15T03:33:11.794Z,101510.82
2018-07-15T03:34:17.275Z,101514.38
2018-07-15T03:35:22.866Z,101516.50
2018-07-15T03:36:28.424Z,101513.16
2018-07-15T03:37:33.957Z,101513.23
2018-07-15T03:38:39.540Z,101505.63
2018-07-15T03:39:45.058Z,101508.66
2018-07-15T03:40:50.437Z,101507.77
2018-07-15T03:41:55.856Z,101512.15
2018-07-15T03:43:01.329Z,101510.61
2018-07-15T03:44:07.121Z,101513.19
2018-07-15T03:45:12.977Z,101511.45
2018-07-15T03:46:18.449Z,101509.81
2018-07-15T03:47:23.871Z,101507.72
2018-07-15T03:48:29.297Z,101507.86
2018-07-15T03:49:34.697Z,101504.52
2018-07-15T03:50:40.293Z,101504.90
2018-07-15T03:51:45.718Z,101507.48
2018-07-15T03:52:51.177Z,101510.05
2018-07-15T03:53:56.652Z,101504.37
2018-07-15T03:55:02.105Z,101505.66
2018-07-15T03:56:07.663Z,101508.28
2018-07-15T03:57:12.783Z,101508.70
2018-07-15T03:58:18.118Z,101504.41
2018-07-15T03:59:23.579Z,101506.64
2018-07-15T04:00:29.021Z,101504.94
2018-07-15T04:01:34.577Z,101506.64
2018-07-15T04:02:40.011Z,101506.12
2018-07-15T04:03:45.489Z,101505.19
2018-07-15T04:04:50.917Z,101508.14
2018-07-15T04:05:56.383Z,101505.95
2018-07-15T04:07:01.901Z,101505.91
2018-07-15T04:08:07.347Z,101504.07
2018-07-15T04:09:12.762Z,101504.84
2018-07-15T04:10:18.451Z,101506.92
2018-07-15T04:11:23.841Z,101508.14
2018-07-15T04:12:29.314Z,101508.45
2018-07-15T04:13:35.182Z,101510.78
2018-07-15T04:14:40.593Z,101507.08
2018-07-15T04:15:46.041Z,101509.22
2018-07-15T04:16:51.504Z,101510.97
2018-07-15T04:18:05.441Z,101510.48
2018-07-15T04:19:10.966Z,101510.39
2018-07-15T04:20:16.438Z,101506.94
2018-07-15T04:21:21.878Z,101511.23
2018-07-15T04:22:27.394Z,101505.58
2018-07-15T04:23:32.887Z,101504.69
2018-07-15T04:24:38.320Z,101510.02
2018-07-15T04:25:43.770Z,101509.21
2018-07-15T04:26:49.206Z,101514.53
2018-07-15T04:27:54.630Z,101508.45
2018-07-15T04:29:00.418Z,101508.50
2018-07-15T04:30:06.394Z,101518.46
2018-07-15T04:31:11.838Z,101519.30
2018-07-15T04:32:17.280Z,101514.03
2018-07-15T04:33:22.737Z,101513.75
2018-07-15T04:34:28.134Z,101513.05
2018-07-15T04:35:33.611Z,101514.33
2018-07-15T04:36:39.026Z,101503.80
2018-07-15T04:37:44.477Z,101508.14
2018-07-15T04:38:50.034Z,101508.47
2018-07-15T04:39:55.469Z,101504.21
2018-07-15T04:41:00.958Z,101503.80
2018-07-15T04:42:06.437Z,101504.11
2018-07-15T04:43:11.910Z,101502.62
2018-07-15T04:44:17.382Z,101499.33
2018-07-15T04:45:22.903Z,101501.72
2018-07-15T04:46:28.421Z,101503.64
2018-07-15T04:47:34.665Z,101498.84
2018-07-15T04:48:40.204Z,101500.95
2018-07-15T04:49:45.630Z,101497.71
2018-07-15T04:50:51.054Z,101498.39
2018-07-15T04:51:56.559Z,101499.69
2018-07-15T04:53:02.006Z,101499.69
2018-07-15T04:54:08.319Z,101501.28
2018-07-15T04:55:13.751Z,101502.13
2018-07-15T04:56:19.141Z,101504.28
2018-07-15T04:57:24.758Z,101506.98
2018-07-15T04:58:30.594Z,101503.75
2018-07-15T04:59:36.130Z,101504.02
2018-07-15T05:00:41.537Z,101506.55
2018-07-15T05:01:46.944Z,101509.18
2018-07-15T05:02:52.374Z,101504.11
2018-07-15T05:03:57.942Z,101507.02
2018-07-15T05:05:03.437Z,101511.31
2018-07-15T05:06:08.938Z,101511.48
2018-07-15T05:07:14.353Z,101511.68
2018-07-15T05:08:19.889Z,101515.16
2018-07-15T05:09:25.354Z,101514.13
2018-07-15T05:10:30.850Z,101511.06
2018-07-15T05:11:36.822Z,101514.44
2018-07-15T05:12:42.334Z,101508.42
2018-07-15T05:13:47.818Z,101505.09
2018-07-15T05:14:53.249Z,101505.95
2018-07-15T05:15:58.805Z,101512.76
2018-07-15T05:17:04.205Z,101503.98
2018-07-15T05:18:09.805Z,101510.05
2018-07-15T05:19:15.398Z,101507.97
2018-07-15T05:20:20.832Z,101504.65
2018-07-15T05:21:26.777Z,101507.38
2018-07-15T05:22:32.221Z,101511.44
2018-07-15T05:23:37.654Z,101517.04
2018-07-15T05:24:43.119Z,101511.78
2018-07-15T05:25:48.621Z,101511.13
2018-07-15T05:26:54.122Z,101513.86
2018-07-15T05:27:59.561Z,101516.62
2018-07-15T05:29:05.058Z,101510.94
2018-07-15T05:30:10.517Z,101514.91
2018-07-15T05:31:15.972Z,101517.45
2018-07-15T05:32:21.430Z,101516.91
2018-07-15T05:33:26.943Z,101513.12
2018-07-15T05:34:32.377Z,101511.83
2018-07-15T05:35:37.893Z,101518.53
2018-07-15T05:36:43.348Z,101513.86
2018-07-15T05:37:48.795Z,101514.82
2018-07-15T05:38:54.260Z,101519.48
2018-07-15T05:39:59.721Z,101517.23
2018-07-15T05:41:05.201Z,101521.94
2018-07-15T05:42:10.689Z,101520.64
2018-07-15T05:43:16.148Z,101515.05
2018-07-15T05:44:21.636Z,101518.80
2018-07-15T05:45:27.069Z,101524.84
2018-07-15T05:46:32.515Z,101521.70
2018-07-15T05:47:38.043Z,101519.17
2018-07-15T05:48:43.485Z,101522.98
2018-07-15T05:49:48.969Z,101521.98
2018-07-15T05:50:54.630Z,101522.11
2018-07-15T05:52:00.186Z,101521.00
2018-07-15T05:53:05.670Z,101525.11
2018-07-15T05:54:11.162Z,101533.28
2018-07-15T05:55:16.609Z,101526.69
2018-07-15T05:56:22.079Z,101527.55
2018-07-15T05:57:27.573Z,101525.95
2018-07-15T05:58:33.498Z,101528.99
2018-07-15T05:59:39.080Z,101529.27
2018-07-15T06:00:44.589Z,101530.88
2018-07-15T06:01:50.061Z,101525.70
2018-07-15T06:02:55.509Z,101523.59
2018-07-15T06:04:00.982Z,101526.44
2018-07-15T06:05:06.610Z,101526.81
2018-07-15T06:06:12.044Z,101528.01
2018-07-15T06:07:17.465Z,101521.86
2018-07-15T06:08:22.961Z,101528.13
2018-07-15T06:09:28.389Z,101529.98
2018-07-15T06:10:33.892Z,101532.73
2018-07-15T06:11:39.340Z,101533.63
2018-07-15T06:12:44.885Z,101530.54
2018-07-15T06:13:50.682Z,101532.00
2018-07-15T06:14:56.231Z,101536.13
2018-07-15T06:16:01.677Z,101537.23
2018-07-15T06:17:07.431Z,101532.62
2018-07-15T06:18:12.915Z,101538.58
2018-07-15T06:19:18.310Z,101537.12
2018-07-15T06:20:23.829Z,101534.28
2018-07-15T06:21:29.301Z,101539.92
2018-07-15T06:22:34.772Z,101538.94
2018-07-15T06:23:40.259Z,101539.52
2018-07-15T06:24:45.693Z,101536.67
2018-07-15T06:25:51.153Z,101531.27
2018-07-15T06:26:56.610Z,101539.15
2018-07-15T06:28:02.101Z,101533.50
2018-07-15T06:29:07.601Z,101532.88
2018-07-15T06:30:13.122Z,101530.23
2018-07-15T06:31:18.651Z,101533.22
2018-07-15T06:32:24.134Z,101529.43
2018-07-15T06:33:29.536Z,101533.17
2018-07-15T06:34:34.988Z,101529.38
2018-07-15T06:35:40.453Z,101535.33
2018-07-15T06:36:45.896Z,101527.38
2018-07-15T06:37:51.561Z,101531.41
2018-07-15T06:38:57.014Z,101532.27
2018-07-15T06:40:02.573Z,101529.86
2018-07-15T06:41:08.122Z,101528.16
2018-07-15T06:42:13.918Z,101523.66
2018-07-15T06:43:19.293Z,101526.20
2018-07-15T06:44:24.738Z,101532.81
2018-07-15T06:45:30.157Z,101531.70
2018-07-15T06:46:35.609Z,101533.31
2018-07-15T06:47:41.053Z,101531.00
2018-07-15T06:48:46.481Z,101533.08
2018-07-15T06:49:52.014Z,101532.67
2018-07-15T06:50:57.444Z,101532.86
2018-07-15T06:52:02.917Z,101531.75
2018-07-15T06:53:08.378Z,101534.03
2018-07-15T06:54:13.920Z,101536.29
2018-07-15T06:55:19.420Z,101530.88
2018-07-15T06:56:24.984Z,101530.69
2018-07-15T06:57:30.894Z,101530.34
2018-07-15T06:58:36.346Z,101529.55
2018-07-15T06:59:41.903Z,101528.03
2018-07-15T07:00:47.389Z,101532.11
2018-07-15T07:01:52.905Z,101528.02
2018-07-15T07:02:58.523Z,101530.69
2018-07-15T07:04:04.110Z,101535.63
2018-07-15T07:05:09.759Z,101533.73
2018-07-15T07:06:15.252Z,101535.73
2018-07-15T07:07:20.979Z,101530.06
2018-07-15T07:08:26.406Z,101533.96
2018-07-15T07:09:31.853Z,101530.39
2018-07-15T07:10:37.284Z,101530.16
2018-07-15T07:11:42.711Z,101533.69
2018-07-15T07:12:48.162Z,101526.73
2018-07-15T07:13:53.629Z,101525.44
2018-07-15T07:14:59.060Z,101528.42
2018-07-15T07:16:04.509Z,101529.33
2018-07-15T07:17:09.992Z,101520.09
2018-07-15T07:18:15.461Z,101528.78
2018-07-15T07:19:20.908Z,101524.28
2018-07-15T07:20:26.473Z,101520.67
2018-07-15T07:21:32.021Z,101522.73
2018-07-15T07:22:37.770Z,101525.73
2018-07-15T07:23:43.182Z,101522.13
2018-07-15T07:24:48.650Z,101521.13
2018-07-15T07:25:54.074Z,101521.99
2018-07-15T07:26:59.682Z,101521.31
2018-07-15T07:28:05.277Z,101521.82
2018-07-15T07:29:10.729Z,101521.31
2018-07-15T07:30:16.392Z,101521.75
2018-07-15T07:31:22.002Z,101520.17
2018-07-15T07:32:27.614Z,101521.34
2018-07-15T07:33:33.165Z,101521.49
2018-07-15T07:34:38.609Z,101519.66
2018-07-15T07:35:44.089Z,101520.20
2018-07-15T07:36:49.692Z,101516.70
2018-07-15T07:37:55.343Z,101524.25
2018-07-15T07:39:00.761Z,101520.49
2018-07-15T07:40:06.538Z,101524.61
2018-07-15T07:41:12.564Z,101521.25
2018-07-15T07:42:18.092Z,101522.95
2018-07-15T07:43:23.549Z,101517.49
2018-07-15T07:44:29.023Z,101521.18
2018-07-15T07:45:34.555Z,101519.81
2018-07-15T07:46:40.027Z,101514.53
2018-07-15T07:47:45.547Z,101515.97
2018-07-15T07:48:51.094Z,101516.44
2018-07-15T07:49:56.619Z,101517.54
2018-07-15T07:51:02.054Z,101517.13
2018-07-15T07:52:09.070Z,101513.48
2018-07-15T07:53:14.505Z,101517.13
2018-07-15T07:54:20.235Z,101515.84
2018-07-15T07:55:25.733Z,101515.33
2018-07-15T07:56:31.145Z,101521.73
2018-07-15T07:57:36.553Z,101517.13
2018-07-15T07:58:41.997Z,101517.30
2018-07-15T07:59:47.172Z,101515.28
2018-07-15T08:00:52.947Z,101512.55
2018-07-15T08:01:58.467Z,101515.83
2018-07-15T08:03:04.183Z,101514.92
2018-07-15T08:04:09.719Z,101512.09
2018-07-15T08:05:15.340Z,101520.70
2018-07-15T08:06:21.156Z,101516.16
2018-07-15T08:07:26.639Z,101514.67
2018-07-15T08:08:32.126Z,101514.86
2018-07-15T08:09:37.716Z,101514.86
2018-07-15T08:10:43.207Z,101519.39
2018-07-15T08:11:49.172Z,101514.03
2018-07-15T08:12:54.682Z,101516.48
2018-07-15T08:14:00.103Z,101518.66
2018-07-15T08:15:05.661Z,101509.83
2018-07-15T08:16:10.824Z,101513.22
2018-07-15T08:17:16.257Z,101516.03
2018-07-15T08:18:21.665Z,101511.61
2018-07-15T08:19:27.060Z,101520.58
2018-07-15T08:20:34.152Z,101513.04
2018-07-15T08:21:39.309Z,101521.64
2018-07-15T08:22:44.700Z,101516.35
2018-07-15T08:23:50.247Z,101521.06
2018-07-15T08:24:55.729Z,101521.61
2018-07-15T08:26:01.222Z,101518.05
2018-07-15T08:27:07.051Z,101519.64
2018-07-15T08:28:12.547Z,101525.52
2018-07-15T08:29:18.082Z,101517.55
2018-07-15T08:30:40.373Z,101517.78
2018-07-15T08:31:45.801Z,101520.46
2018-07-15T08:32:51.204Z,101519.62
2018-07-15T08:33:56.980Z,101519.19
2018-07-15T08:35:02.500Z,101519.78
2018-07-15T08:36:08.142Z,101513.56
2018-07-15T08:37:13.572Z,101508.37
2018-07-15T08:38:19.153Z,101515.03
2018-07-15T08:39:24.631Z,101508.73
2018-07-15T08:40:30.106Z,101513.42
2018-07-15T08:41:36.185Z,101510.80
2018-07-15T08:42:41.689Z,101510.23
2018-07-15T08:43:47.130Z,101510.88
2018-07-15T08:44:52.574Z,101508.09
2018-07-15T08:45:57.995Z,101506.13
2018-07-15T08:47:05.973Z,101510.05
2018-07-15T08:48:11.534Z,101510.80
2018-07-15T08:49:16.992Z,101507.80
2018-07-15T08:50:22.380Z,101511.80
2018-07-15T08:51:27.869Z,101512.28
2018-07-15T08:52:33.340Z,101510.42
2018-07-15T08:53:38.779Z,101513.50
2018-07-15T08:54:44.594Z,101510.89
2018-07-15T08:55:50.129Z,101508.64
2018-07-15T08:56:55.622Z,101508.28
2018-07-15T08:58:01.225Z,101513.61
2018-07-15T08:59:06.725Z,101506.05
2018-07-15T09:00:12.289Z,101507.18
2018-07-15T09:01:17.850Z,101517.91
2018-07-15T09:02:23.377Z,101516.40
2018-07-15T09:03:29.013Z,101516.32
2018-07-15T09:04:34.496Z,101508.84
2018-07-15T09:05:40.022Z,101513.98
2018-07-15T09:06:45.849Z,101516.33
2018-07-15T09:07:51.266Z,101510.90
2018-07-15T09:08:56.689Z,101510.90
2018-07-15T09:10:02.121Z,101505.59
2018-07-15T09:11:07.535Z,101508.50
2018-07-15T09:12:13.027Z,101510.55
2018-07-15T09:13:18.508Z,101508.30
2018-07-15T09:14:23.945Z,101504.85
2018-07-15T09:15:29.415Z,101510.42
2018-07-15T09:16:34.823Z,101512.12
2018-07-15T09:17:40.440Z,101510.90
2018-07-15T09:18:45.789Z,101507.55
2018-07-15T09:19:51.326Z,101512.12
2018-07-15T09:20:57.649Z,101505.88
2018-07-15T09:22:03.108Z,101506.25
2018-07-15T09:23:08.826Z,101508.55
2018-07-15T09:24:14.474Z,101506.25
2018-07-15T09:25:19.928Z,101506.25
2018-07-15T09:26:25.403Z,101499.89
2018-07-15T09:27:30.949Z,101499.14
2018-07-15T09:28:36.439Z,101501.49
2018-07-15T09:29:42.080Z,101503.72
2018-07-15T09:30:47.546Z,101494.94
2018-07-15T09:31:52.979Z,101494.45
2018-07-15T09:32:58.434Z,101493.42
2018-07-15T09:34:03.912Z,101492.59
2018-07-15T09:35:09.097Z,101495.03
2018-07-15T09:36:14.433Z,101488.76
2018-07-15T09:37:19.996Z,101498.48
2018-07-15T09:38:25.487Z,101495.41
2018-07-15T09:39:31.147Z,101491.87
2018-07-15T09:40:36.625Z,101494.39
2018-07-15T09:41:42.073Z,101487.74
2018-07-15T09:42:47.539Z,101488.91
2018-07-15T09:43:52.844Z,101485.75
2018-07-15T09:44:58.651Z,101491.50
2018-07-15T09:46:04.097Z,101491.31
2018-07-15T09:47:09.541Z,101491.77
2018-07-15T09:48:14.974Z,101488.61
2018-07-15T09:49:20.851Z,101488.34
2018-07-15T09:50:26.283Z,101490.47
2018-07-15T09:51:31.706Z,101482.14
2018-07-15T09:52:37.172Z,101481.88
2018-07-15T09:53:42.656Z,101488.59
2018-07-15T09:54:50.733Z,101483.25
2018-07-15T09:55:56.186Z,101476.42
2018-07-15T09:57:01.601Z,101483.67
2018-07-15T09:58:07.019Z,101481.47
2018-07-15T09:59:12.443Z,101481.09
2018-07-15T10:00:22.958Z,101483.64
2018-07-15T10:01:28.263Z,101480.71
2018-07-15T10:02:33.721Z,101485.14
2018-07-15T10:03:39.159Z,101478.12
2018-07-15T10:04:44.750Z,101482.20
2018-07-15T10:05:50.175Z,101479.00
2018-07-15T10:06:55.634Z,101483.16
2018-07-15T10:08:01.235Z,101482.48
2018-07-15T10:09:08.293Z,101481.81
2018-07-15T10:10:13.681Z,101478.96
2018-07-15T10:11:19.149Z,101478.19
2018-07-15T10:12:24.639Z,101478.88
2018-07-15T10:13:30.106Z,101473.34
2018-07-15T10:14:36.371Z,101475.41
2018-07-15T10:15:41.808Z,101470.59
2018-07-15T10:16:47.219Z,101478.41
2018-07-15T10:17:52.764Z,101471.21
2018-07-15T10:18:58.228Z,101478.33
2018-07-15T10:20:03.837Z,101474.02
2018-07-15T10:21:09.246Z,101477.41
2018-07-15T10:22:14.709Z,101473.26
2018-07-15T10:23:20.117Z,101471.53
2018-07-15T10:24:25.613Z,101474.48
2018-07-15T10:25:31.138Z,101475.95
2018-07-15T10:26:36.688Z,101465.95
2018-07-15T10:27:42.131Z,101465.46
2018-07-15T10:28:47.223Z,101464.17
2018-07-15T10:29:52.602Z,101467.48
2018-07-15T10:30:58.018Z,101466.02
2018-07-15T10:32:03.517Z,101466.56
2018-07-15T10:33:09.002Z,101461.57
2018-07-15T10:34:14.460Z,101457.50
2018-07-15T10:35:19.949Z,101462.63
2018-07-15T10:36:25.489Z,101455.60
2018-07-15T10:37:31.053Z,101463.17
2018-07-15T10:38:36.550Z,101458.00
2018-07-15T10:39:42.004Z,101455.18
2018-07-15T10:40:47.602Z,101461.09
2018-07-15T10:41:53.049Z,101457.50
2018-07-15T10:42:58.678Z,101454.02
2018-07-15T10:44:04.029Z,101455.67
2018-07-15T10:45:09.501Z,101445.56
2018-07-15T10:46:14.987Z,101454.95
2018-07-15T10:47:20.633Z,101455.84
2018-07-15T10:48:26.128Z,101447.14
2018-07-15T10:49:31.585Z,101448.20
2018-07-15T10:50:37.014Z,101449.26
2018-07-15T10:51:42.521Z,101446.42
2018-07-15T10:52:47.974Z,101448.19
2018-07-15T10:53:53.487Z,101449.98
2018-07-15T10:54:59.061Z,101445.30
2018-07-15T10:56:04.497Z,101441.81
2018-07-15T10:57:09.911Z,101442.30
2018-07-15T10:58:15.398Z,101438.55
2018-07-15T10:59:20.905Z,101440.72
2018-07-15T11:00:26.340Z,101440.64
2018-07-15T11:01:31.740Z,101440.27
2018-07-15T11:02:37.245Z,101429.28
2018-07-15T11:03:42.697Z,101437.94
2018-07-15T11:04:48.242Z,101436.12
2018-07-15T11:05:53.941Z,101439.38
2018-07-15T11:06:59.822Z,101439.86
2018-07-15T11:08:05.638Z,101437.58
2018-07-15T11:09:11.198Z,101433.92
2018-07-15T11:10:16.749Z,101427.72
2018-07-15T11:11:22.197Z,101426.72
2018-07-15T11:12:27.773Z,101434.41
2018-07-15T11:13:33.254Z,101428.19
2018-07-15T11:14:38.388Z,101432.08
2018-07-15T11:15:43.709Z,101431.52
2018-07-15T11:16:49.269Z,101427.14
2018-07-15T11:17:54.705Z,101432.12
2018-07-15T11:19:00.181Z,101428.50
2018-07-15T11:20:05.733Z,101427.48
2018-07-15T11:21:11.270Z,101430.83
2018-07-15T11:22:16.810Z,101426.53
2018-07-15T11:23:22.408Z,101424.97
2018-07-15T11:24:27.895Z,101414.08
2018-07-15T11:25:33.373Z,101420.54
2018-07-15T11:26:38.876Z,101418.73
2018-07-15T11:27:44.341Z,101420.02
2018-07-15T11:28:49.856Z,101416.64
2018-07-15T11:29:55.309Z,101413.64
2018-07-15T11:31:00.805Z,101414.61
2018-07-15T11:32:06.186Z,101417.58
2018-07-15T11:33:11.717Z,101412.52
2018-07-15T11:34:17.158Z,101416.34
2018-07-15T11:35:22.589Z,101415.00
2018-07-15T11:36:29.417Z,101412.48
2018-07-15T11:37:34.874Z,101415.95
2018-07-15T11:38:40.458Z,101413.42
2018-07-15T11:39:45.899Z,101410.25
2018-07-15T11:40:51.357Z,101418.27
2018-07-15T11:41:56.810Z,101410.07
2018-07-15T11:43:02.367Z,101409.03
2018-07-15T11:44:08.011Z,101406.43
2018-07-15T11:45:13.441Z,101401.78
2018-07-15T11:46:18.952Z,101403.97
2018-07-15T11:47:24.402Z,101405.78
2018-07-15T11:48:30.024Z,101406.00
2018-07-15T11:49:35.641Z,101403.16
2018-07-15T11:50:41.133Z,101401.84
2018-07-15T11:51:46.605Z,101400.30
2018-07-15T11:52:52.566Z,101397.08
2018-07-15T11:53:58.149Z,101397.19
2018-07-15T11:55:04.015Z,101397.10
2018-07-15T11:56:09.486Z,101403.81
2018-07-15T11:57:14.941Z,101397.48
2018-07-15T11:58:20.432Z,101399.13
2018-07-15T11:59:32.547Z,101399.84
2018-07-15T12:00:38.090Z,101393.05
2018-07-15T12:01:43.688Z,101396.52
2018-07-15T12:02:49.120Z,101385.86
2018-07-15T12:03:54.545Z,101389.58
2018-07-15T12:05:00.054Z,101389.58
2018-07-15T12:06:05.591Z,101389.70
2018-07-15T12:07:11.003Z,101372.48
2018-07-15T12:08:16.475Z,101382.51
2018-07-15T12:09:21.962Z,101378.94
2018-07-15T12:10:27.404Z,101377.98
2018-07-15T12:11:32.817Z,101376.55
2018-07-15T12:12:38.301Z,101379.28
2018-07-15T12:13:43.726Z,101383.25
2018-07-15T12:14:49.161Z,101386.45
2018-07-15T12:15:54.641Z,101379.17
2018-07-15T12:17:00.097Z,101378.92
2018-07-15T12:18:05.569Z,101377.59
2018-07-15T12:19:11.059Z,101377.13
2018-07-15T12:20:16.501Z,101373.55
2018-07-15T12:21:22.011Z,101374.97
2018-07-15T12:22:27.549Z,101379.87
2018-07-15T12:23:33.094Z,101370.79
2018-07-15T12:24:38.519Z,101369.23
2018-07-15T12:25:43.964Z,101373.82
2018-07-15T12:26:49.525Z,101374.97
2018-07-15T12:27:54.993Z,101374.42